メインページ
METAR-TAF:

METAR-TAF

空港 :

バーレーン国際空港

バーレーン, バーレーン

緯度: 26-16N, 経度: 050-39E, 海抜: 2m

現時点の気象観測

当レポートは6分前の04:00(UTC)に作成
西の風 4kt、西/南西から西/北西の間で変化する
気温 29°C
湿度 70%
気圧 1009 hPa
視程: 8000m

METAR: OBBI 220400Z 27004KT 240V300 8000 NSC 29/23 Q1009 NOSIG

時間: 07:06 (04:06 UTC)

予報

当レポートは5時間6分前の23:00(UTC)に作成
予報は22日の 00時(UTC)から 23日の 06時(UTC)まで有効
変向風 5kt
視程10km以上
1,500メートル以下は雲なし、積乱雲なし
22日の 10時(UTC)から 22日の 12時(UTC)まで徐々に
北東の風 10kt
22日の 16時(UTC)から 22日の 18時(UTC)まで徐々に
変向風 5kt

TAF: OBBI 212300Z 2200/2306 VRB05KT CAVOK BECMG 2210/2212 05010KT BECMG 2216/2218 VRB05KT

4,000以上の空港の気象観測と天気予報(METAR報とTAF報)

利用可能な観測所は地図上に黄色い丸と赤い丸で示す。

丸の上にカーソルを重ねると観測所名を参照できる。

次にクリックすると気象観測と天気予報を参照できる。

マップの切り替え:黒色「×」印の緑ボタンをクリックして拡大、「-」印の緑ボタンをクリックして縮小、緑色の三角印をクリックして隣りの地図に切り替え


METAR-TAF: